Time;durP1;ratioP1;P1;durP2;ratioP2;P2;SDS_P1;SDS_P2;PMS_P1;PMS_P2;Temp;Humidity;BMP_temperature;BMP_pressure;BME280_temperature;BME280_humidity;BME280_pressure;Samples;Min_cycle;Max_cycle;Signal;HPM_P1;HPM_P2
2021/11/18 00:02:13;;;;;;;47.60;16.48;;;6.30;99.90;;;;;;5057457;28;20043;-63
2021/11/18 00:04:39;;;;;;;43.80;16.40;;;6.30;99.90;;;;;;5056836;28;20028;-63
2021/11/18 00:07:04;;;;;;;51.78;17.20;;;6.30;99.90;;;;;;5056786;28;20757;-64
2021/11/18 00:09:29;;;;;;;55.58;18.10;;;6.30;99.90;;;;;;5056966;28;20070;-64
2021/11/18 00:11:55;;;;;;;50.60;17.05;;;6.30;99.90;;;;;;5039236;28;20265;-63
2021/11/18 00:14:21;;;;;;;48.92;18.63;;;6.20;99.90;;;;;;5057198;28;20036;-63
2021/11/18 00:16:46;;;;;;;53.67;18.85;;;6.20;99.90;;;;;;5056399;28;20063;-64
2021/11/18 00:19:12;;;;;;;50.80;16.73;;;6.20;99.90;;;;;;5057401;28;20064;-63
2021/11/18 00:21:37;;;;;;;51.60;17.10;;;6.20;99.90;;;;;;5056915;28;20032;-64
2021/11/18 00:24:02;;;;;;;55.40;18.30;;;6.20;99.90;;;;;;5057724;28;20127;-64
2021/11/18 00:26:28;;;;;;;54.47;17.48;;;6.20;99.90;;;;;;5057424;28;20032;-64
2021/11/18 00:28:53;;;;;;;51.45;18.00;;;6.20;99.90;;;;;;5038284;28;20119;-64
2021/11/18 00:31:20;;;;;;;60.33;18.33;;;6.20;99.90;;;;;;5038755;28;20028;-63
2021/11/18 00:33:45;;;;;;;57.15;17.52;;;6.10;99.90;;;;;;5056653;28;20098;-64
2021/11/18 00:36:11;;;;;;;54.00;18.02;;;6.10;99.90;;;;;;5038693;28;20040;-64
2021/11/18 00:38:37;;;;;;;57.70;18.75;;;6.10;99.90;;;;;;5040659;28;20032;-63
2021/11/18 00:41:03;;;;;;;51.25;18.25;;;6.10;99.90;;;;;;5060125;28;20457;-63
2021/11/18 00:43:28;;;;;;;62.42;18.52;;;6.00;99.90;;;;;;5060761;28;20032;-63
2021/11/18 00:45:54;;;;;;;53.10;18.33;;;6.30;99.90;;;;;;5042504;28;20133;-63
2021/11/18 00:48:19;;;;;;;54.92;17.95;;;6.00;99.90;;;;;;5042447;28;20075;-64
2021/11/18 00:50:45;;;;;;;67.32;18.02;;;6.00;99.90;;;;;;5060792;28;20028;-63
2021/11/18 00:53:10;;;;;;;50.33;18.40;;;6.00;99.90;;;;;;5060495;28;20493;-63
2021/11/18 00:55:36;;;;;;;46.60;16.98;;;6.00;99.90;;;;;;5042659;28;20035;-64
2021/11/18 00:58:02;;;;;;;58.08;17.90;;;6.00;99.90;;;;;;5025525;28;20039;-63
2021/11/18 01:00:28;;;;;;;58.78;18.23;;;5.90;99.90;;;;;;5042180;28;20555;-64
2021/11/18 01:02:54;;;;;;;63.53;17.90;;;6.00;99.90;;;;;;5042377;28;20173;-62
2021/11/18 01:05:24;;;;;;;57.08;18.02;;;6.00;99.90;;;;;;5041523;28;20171;-63
2021/11/18 01:07:50;;;;;;;69.70;22.10;;;6.00;99.90;;;;;;5042008;28;20040;-63
2021/11/18 01:10:16;;;;;;;65.30;17.92;;;5.90;99.90;;;;;;5041868;28;20083;-63
2021/11/18 01:12:41;;;;;;;53.33;17.85;;;5.90;99.90;;;;;;5042144;28;20141;-64
2021/11/18 01:15:07;;;;;;;67.05;19.38;;;5.90;99.90;;;;;;5041910;28;20121;-63
2021/11/18 01:17:33;;;;;;;66.80;19.50;;;5.90;99.90;;;;;;5040779;28;20035;-63
2021/11/18 01:19:58;;;;;;;55.15;17.55;;;5.90;99.90;;;;;;5042205;28;20139;-64
2021/11/18 01:22:24;;;;;;;58.28;19.67;;;5.90;99.90;;;;;;5059645;28;20021;-64
2021/11/18 01:24:49;;;;;;;51.22;17.50;;;5.90;99.90;;;;;;5041792;28;20040;-64
2021/11/18 01:27:21;;;;;;;56.92;18.20;;;5.90;99.90;;;;;;5024717;28;20124;-64
2021/11/18 01:29:46;;;;;;;52.53;18.27;;;5.80;99.90;;;;;;5059362;28;20033;-63
2021/11/18 01:32:13;;;;;;;54.50;17.60;;;5.90;99.90;;;;;;5039305;28;20724;-64
2021/11/18 01:34:42;;;;;;;60.58;16.77;;;5.90;99.90;;;;;;5040757;28;20044;-64
2021/11/18 01:37:08;;;;;;;55.60;17.77;;;7.20;99.90;;;;;;5042517;28;20028;-63
2021/11/18 01:39:34;;;;;;;64.30;18.65;;;5.90;99.90;;;;;;5041348;28;20076;-63
2021/11/18 01:42:00;;;;;;;52.45;17.67;;;5.90;99.90;;;;;;5039622;28;20090;-63
2021/11/18 01:44:26;;;;;;;65.65;22.38;;;5.90;99.90;;;;;;5040805;28;20035;-63
2021/11/18 01:46:51;;;;;;;57.53;18.73;;;5.90;99.90;;;;;;5040209;28;20024;-63
2021/11/18 01:49:22;;;;;;;50.85;17.65;;;5.80;99.90;;;;;;5039685;28;20063;-64
2021/11/18 01:51:48;;;;;;;49.50;16.98;;;5.90;99.90;;;;;;5039125;28;20575;-63
2021/11/18 01:54:13;;;;;;;72.63;21.27;;;5.90;99.90;;;;;;5040196;28;20108;-63
2021/11/18 01:56:39;;;;;;;63.55;18.40;;;5.90;99.90;;;;;;5059098;28;20475;-64
2021/11/18 01:59:07;;;;;;;56.85;18.67;;;5.90;99.90;;;;;;5040171;28;20061;-63
2021/11/18 02:01:43;;;;;;;60.58;17.55;;;5.90;99.90;;;;;;5038325;28;20856;-64
2021/11/18 02:04:17;;;;;;;59.92;17.40;;;5.90;99.90;;;;;;5040789;28;20504;-64
2021/11/18 02:06:53;;;;;;;66.65;17.35;;;5.90;99.90;;;;;;5039184;28;20029;-64
2021/11/18 02:09:19;;;;;;;58.35;17.63;;;6.00;99.90;;;;;;5040258;28;20128;-64
2021/11/18 02:11:52;;;;;;;53.00;16.65;;;5.70;99.90;;;;;;5040345;28;20032;-64
2021/11/18 02:14:18;;;;;;;57.28;17.27;;;6.00;99.90;;;;;;5022801;28;20031;-64
2021/11/18 02:16:44;;;;;;;65.90;17.95;;;6.00;99.90;;;;;;5041093;28;20123;-64
2021/11/18 02:19:09;;;;;;;58.53;18.45;;;6.00;99.90;;;;;;5039835;28;20103;-64
2021/11/18 02:21:36;;;;;;;58.35;18.05;;;6.00;99.90;;;;;;5039303;28;20025;-64
2021/11/18 02:24:02;;;;;;;49.20;16.60;;;6.10;99.90;;;;;;5040119;28;20204;-64
2021/11/18 02:26:30;;;;;;;57.58;17.77;;;6.60;99.90;;;;;;5039313;28;20590;-64
2021/11/18 02:28:56;;;;;;;63.65;17.90;;;6.00;99.90;;;;;;5039779;28;20024;-64
2021/11/18 02:31:23;;;;;;;63.22;17.38;;;6.10;99.90;;;;;;5040397;28;20090;-64
2021/11/18 02:33:49;;;;;;;60.13;16.65;;;6.10;99.90;;;;;;5039663;28;20048;-64
2021/11/18 02:36:18;;;;;;;53.38;16.73;;;6.00;99.90;;;;;;5056761;28;20032;-64
2021/11/18 02:38:44;;;;;;;60.10;18.92;;;6.00;99.90;;;;;;5041212;28;20040;-64
2021/11/18 02:41:15;;;;;;;55.10;18.42;;;6.00;99.90;;;;;;5025671;28;20028;-64
2021/11/18 02:43:42;;;;;;;54.95;17.42;;;6.00;99.90;;;;;;5041514;28;20031;-64
2021/11/18 02:46:09;;;;;;;63.78;18.40;;;5.90;99.90;;;;;;5040994;28;20039;-64
2021/11/18 02:48:35;;;;;;;56.55;18.02;;;6.00;99.90;;;;;;5041644;28;20032;-65
2021/11/18 02:51:01;;;;;;;59.90;18.50;;;6.00;99.90;;;;;;5059484;28;20040;-64
2021/11/18 02:53:27;;;;;;;52.78;17.15;;;;;;;;;;5040419;28;20043;-64
2021/11/18 02:55:53;;;;;;;60.53;16.98;;;;;;;;;;5041095;28;20851;-64
2021/11/18 02:58:19;;;;;;;47.92;16.33;;;6.40;99.90;;;;;;5039993;28;20442;-64
2021/11/18 03:00:47;;;;;;;51.67;15.68;;;;;;;;;;5022516;28;20082;-64
2021/11/18 03:03:12;;;;;;;49.17;14.15;;;6.30;99.90;;;;;;5040153;28;20032;-64
2021/11/18 03:05:38;;;;;;;49.45;16.65;;;6.30;99.90;;;;;;5021578;28;20079;-64
2021/11/18 03:08:04;;;;;;;53.70;16.15;;;6.30;99.90;;;;;;5039023;28;20059;-64
2021/11/18 03:10:30;;;;;;;49.65;17.10;;;6.30;99.90;;;;;;5039457;28;20517;-64
2021/11/18 03:12:57;;;;;;;57.35;16.65;;;6.40;99.90;;;;;;5038497;28;20036;-64
2021/11/18 03:15:23;;;;;;;48.33;15.73;;;6.40;99.90;;;;;;5039650;28;20040;-64
2021/11/18 03:17:48;;;;;;;53.88;14.32;;;6.30;99.90;;;;;;5039802;28;20028;-64
2021/11/18 03:20:19;;;;;;;52.42;15.25;;;6.20;99.90;;;;;;5040234;28;20119;-64
2021/11/18 03:22:45;;;;;;;54.85;16.90;;;6.20;99.90;;;;;;5040126;28;20132;-64
2021/11/18 03:25:11;;;;;;;54.38;16.25;;;6.20;99.90;;;;;;5039569;28;20032;-64
2021/11/18 03:27:36;;;;;;;51.03;16.25;;;6.20;99.90;;;;;;5039313;28;20024;-64
2021/11/18 03:30:02;;;;;;;57.22;15.38;;;6.20;99.90;;;;;;5039894;28;20496;-64
2021/11/18 03:32:29;;;;;;;55.60;16.52;;;6.20;99.90;;;;;;5040399;28;20081;-64
2021/11/18 03:34:55;;;;;;;49.88;15.82;;;6.40;99.90;;;;;;5040188;28;20518;-64
2021/11/18 03:37:23;;;;;;;48.60;15.10;;;;;;;;;;5020601;28;20037;-69
2021/11/18 03:39:49;;;;;;;55.13;15.75;;;6.40;99.90;;;;;;5037913;28;20063;-69
2021/11/18 03:42:15;;;;;;;53.63;14.60;;;;;;;;;;5037364;28;20032;-69
2021/11/18 03:44:41;;;;;;;43.45;14.32;;;;;;;;;;5036249;28;20127;-69
2021/11/18 03:47:07;;;;;;;56.72;13.93;;;;;;;;;;5020172;28;20052;-71
2021/11/18 03:49:37;;;;;;;57.53;17.13;;;;;;;;;;5036870;28;20032;-69
2021/11/18 03:52:03;;;;;;;48.80;15.02;;;;;;;;;;5038294;28;20567;-69
2021/11/18 03:54:29;;;;;;;48.17;14.77;;;;;;;;;;5039364;28;20036;-71
2021/11/18 03:56:59;;;;;;;50.35;14.25;;;;;;;;;;5038619;28;20729;-70
2021/11/18 03:59:26;;;;;;;58.00;15.60;;;;;;;;;;5022825;28;20078;-69
2021/11/18 04:01:54;;;;;;;52.15;14.25;;;6.50;99.90;;;;;;5039271;28;20032;-70
2021/11/18 04:04:21;;;;;;;42.67;14.82;;;;;;;;;;5038361;28;20028;-70
2021/11/18 04:06:47;;;;;;;50.47;15.25;;;6.40;99.90;;;;;;5056488;28;20036;-70
2021/11/18 04:09:13;;;;;;;55.30;14.90;;;;;;;;;;5056585;28;20044;-70
2021/11/18 04:11:39;;;;;;;46.03;13.65;;;;;;;;;;5039901;28;20115;-70
2021/11/18 04:14:07;;;;;;;48.28;13.15;;;;;;;;;;5061007;28;20039;-70
2021/11/18 04:16:33;;;;;;;45.83;14.40;;;;;;;;;;5060752;28;20484;-70
2021/11/18 04:18:59;;;;;;;46.40;14.30;;;;;;;;;;5043339;28;20055;-70
2021/11/18 04:21:31;;;;;;;60.63;14.20;;;;;;;;;;5043558;28;20123;-69
2021/11/18 04:23:57;;;;;;;60.25;15.65;;;;;;;;;;5060225;28;20439;-70
2021/11/18 04:26:23;;;;;;;52.70;15.00;;;;;;;;;;5042714;28;20033;-70
2021/11/18 04:28:49;;;;;;;53.72;14.13;;;;;;;;;;5041973;28;20047;-69
2021/11/18 04:31:16;;;;;;;51.08;14.25;;;;;;;;;;5042515;28;20491;-70
2021/11/18 04:33:42;;;;;;;53.97;13.20;;;;;;;;;;5042357;28;20408;-68
2021/11/18 04:36:09;;;;;;;46.70;13.55;;;;;;;;;;5042217;28;20033;-70
2021/11/18 04:38:35;;;;;;;57.05;13.13;;;6.10;99.90;;;;;;5042684;28;20036;-69
2021/11/18 04:41:01;;;;;;;50.85;14.85;;;;;;;;;;5060562;28;20208;-70
2021/11/18 04:43:28;;;;;;;45.17;13.32;;;;;;;;;;5042008;28;20021;-70
2021/11/18 04:45:58;;;;;;;46.10;13.25;;;;;;;;;;5056295;28;20029;-69
2021/11/18 04:48:24;;;;;;;53.85;13.20;;;;;;;;;;5059880;28;20059;-69
2021/11/18 04:50:50;;;;;;;55.60;13.45;;;6.30;99.90;;;;;;5042088;28;20828;-69
2021/11/18 04:53:16;;;;;;;51.17;12.10;;;;;;;;;;5026063;28;20107;-70
2021/11/18 04:55:43;;;;;;;47.90;14.10;;;;;;;;;;5041297;28;20496;-70
2021/11/18 04:58:09;;;;;;;46.70;12.55;;;;;;;;;;5041984;28;20028;-70
2021/11/18 05:00:35;;;;;;;54.35;13.10;;;;;;;;;;5040836;28;20032;-69
2021/11/18 05:03:01;;;;;;;39.75;12.95;;;;;;;;;;5040950;28;20036;-70
2021/11/18 05:05:29;;;;;;;48.22;12.70;;;;;;;;;;5040069;28;20868;-71
2021/11/18 05:07:56;;;;;;;52.85;14.90;;;;;;;;;;5041189;28;20033;-71
2021/11/18 05:10:22;;;;;;;36.47;11.48;;;;;;;;;;5060176;28;20054;-70
2021/11/18 05:12:49;;;;;;;40.13;11.10;;;;;;;;;;5041841;28;20522;-70
2021/11/18 05:15:17;;;;;;;44.35;11.95;;;;;;;;;;5040996;28;20579;-70
2021/11/18 05:17:43;;;;;;;47.10;11.68;;;;;;;;;;5041305;28;20161;-70
2021/11/18 05:20:09;;;;;;;43.65;10.77;;;;;;;;;;5041657;28;20049;-69
2021/11/18 05:22:35;;;;;;;45.92;11.68;;;;;;;;;;5025313;28;20937;-70
2021/11/18 05:25:01;;;;;;;35.03;11.35;;;;;;;;;;5059181;28;20040;-71
2021/11/18 05:27:27;;;;;;;41.53;10.77;;;6.10;99.90;;;;;;5040015;28;20028;-70
2021/11/18 05:29:53;;;;;;;41.15;10.48;;;;;;;;;;5041804;28;20040;-70
2021/11/18 05:32:19;;;;;;;46.70;10.40;;;;;;;;;;5040568;28;20056;-69
2021/11/18 05:35:00;;;;;;;32.70;10.23;;;;;;;;;;5034059;28;20032;-70
2021/11/18 05:37:26;;;;;;;42.70;12.50;;;6.40;99.90;;;;;;5041234;28;20139;-71
2021/11/18 05:39:52;;;;;;;41.47;11.52;;;;;;;;;;5041196;28;20029;-70
2021/11/18 05:42:18;;;;;;;40.38;10.82;;;;;;;;;;5059778;28;20047;-69
2021/11/18 05:44:49;;;;;;;45.88;11.30;;;;;;;;;;5040867;28;20028;-70
2021/11/18 05:47:15;;;;;;;48.65;10.52;;;;;;;;;;5024068;28;20033;-70
2021/11/18 05:49:41;;;;;;;39.60;11.65;;;;;;;;;;5041517;28;20145;-70
2021/11/18 05:52:16;;;;;;;31.38;9.32;;;;;;;;;;5040951;28;20032;-70
2021/11/18 05:54:42;;;;;;;44.25;12.32;;;;;;;;;;5059659;28;20028;-70
2021/11/18 05:57:09;;;;;;;40.10;10.48;;;;;;;;;;5023837;28;20025;-70
2021/11/18 05:59:35;;;;;;;36.85;10.02;;;;;;;;;;5041116;28;20024;-70
2021/11/18 06:02:01;;;;;;;36.45;11.57;;;;;;;;;;5041283;28;20029;-70
2021/11/18 06:04:27;;;;;;;42.63;10.18;;;;;;;;;;5040545;28;20028;-71
2021/11/18 06:07:01;;;;;;;34.42;9.68;;;;;;;;;;5040233;28;20432;-70
2021/11/18 06:09:27;;;;;;;34.65;8.73;;;;;;;;;;5037839;28;20140;-71
2021/11/18 06:11:53;;;;;;;32.92;10.32;;;;;;;;;;5058410;28;20037;-71
2021/11/18 06:14:19;;;;;;;36.58;9.88;;;;;;;;;;5040596;28;20500;-71
2021/11/18 06:16:49;;;;;;;39.03;10.75;;;;;;;;;;5038807;28;20032;-71
2021/11/18 06:19:15;;;;;;;40.40;10.20;;;;;;;;;;5020752;28;20729;-70
2021/11/18 06:21:41;;;;;;;33.92;9.27;;;;;;;;;;5039727;28;20029;-70
2021/11/18 06:24:08;;;;;;;34.33;9.32;;;;;;;;;;5039936;28;20090;-71
2021/11/18 06:26:40;;;;;;;37.85;9.38;;;;;;;;;;5024406;28;20116;-70
2021/11/18 06:29:09;;;;;;;30.80;8.43;;;;;;;;;;5036293;28;20036;-70
2021/11/18 06:31:35;;;;;;;23.05;8.63;;;;;;;;;;5040803;28;20027;-71
2021/11/18 06:34:01;;;;;;;40.15;9.40;;;;;;;;;;5040954;28;20028;-71
2021/11/18 06:36:27;;;;;;;39.05;8.65;;;;;;;;;;5039400;28;20025;-71
2021/11/18 06:38:53;;;;;;;34.00;9.48;;;;;;;;;;5039177;28;20025;-71
2021/11/18 06:41:19;;;;;;;36.03;10.25;;;;;;;;;;5041229;28;20024;-71
2021/11/18 06:43:45;;;;;;;29.98;8.18;;;;;;;;;;5040188;28;20025;-71
2021/11/18 06:46:15;;;;;;;35.42;8.32;;;;;;;;;;5040798;28;20032;-71
2021/11/18 06:48:41;;;;;;;31.33;7.20;;;;;;;;;;5040031;28;20024;-71
2021/11/18 06:51:15;;;;;;;33.45;6.90;;;;;;;;;;5041770;28;20039;-70
2021/11/18 06:53:43;;;;;;;35.95;9.63;;;;;;;;;;5035998;28;20527;-71
2021/11/18 06:56:12;;;;;;;36.42;9.25;;;;;;;;;;5036808;28;20036;-71
2021/11/18 06:58:38;;;;;;;35.90;8.13;;;;;;;;;;5039532;28;20043;-71
2021/11/18 07:01:04;;;;;;;29.48;8.05;;;;;;;;;;5039157;28;20028;-71
2021/11/18 07:03:31;;;;;;;37.17;8.95;;;;;;;;;;5039431;28;20040;-71
2021/11/18 07:05:58;;;;;;;28.48;8.15;;;;;;;;;;5038986;28;20028;-70
2021/11/18 07:08:25;;;;;;;37.38;8.43;;;;;;;;;;5038986;28;20037;-70
2021/11/18 07:10:52;;;;;;;24.60;7.30;;;;;;;;;;5022939;28;20090;-70
2021/11/18 07:13:18;;;;;;;29.13;7.18;;;;;;;;;;5039580;28;20062;-70
2021/11/18 07:15:44;;;;;;;29.23;7.80;;;;;;;;;;5036378;28;20143;-70
2021/11/18 07:18:14;;;;;;;34.63;8.18;;;;;;;;;;5039264;28;20123;-70
2021/11/18 07:20:41;;;;;;;39.25;7.80;;;;;;;;;;5058392;28;20062;-70
2021/11/18 07:23:08;;;;;;;26.65;8.05;;;;;;;;;;5040870;28;20025;-70
2021/11/18 07:25:46;;;;;;;25.10;7.18;;;;;;;;;;5025411;28;20447;-70
2021/11/18 07:28:14;;;;;;;26.52;7.40;;;;;;;;;;5040018;28;20035;-70
2021/11/18 07:30:40;;;;;;;35.83;9.02;;;;;;;;;;5039911;28;20032;-70
2021/11/18 07:33:06;;;;;;;35.72;8.05;;;;;;;;;;5039887;28;20029;-70
2021/11/18 07:35:33;;;;;;;29.40;7.72;;;;;;;;;;5039670;28;20032;-70
2021/11/18 07:38:00;;;;;;;26.63;7.68;;;;;;;;;;5038890;28;20028;-70
2021/11/18 07:40:33;;;;;;;34.00;7.57;;;;;;;;;;5040190;28;20028;-69
2021/11/18 07:43:06;;;;;;;27.00;8.25;;;;;;;;;;5036923;28;20825;-70
2021/11/18 07:45:51;;;;;;;29.90;8.00;;;;;;;;;;5057280;28;20055;-70
2021/11/18 07:48:40;;;;;;;28.58;8.02;;;;;;;;;;5047895;28;20079;-70
2021/11/18 07:51:07;;;;;;;34.42;7.97;;;;;;;;;;5038644;28;20115;-69
2021/11/18 07:53:34;;;;;;;34.05;8.55;;;;;;;;;;5039415;28;20052;-69
2021/11/18 07:56:01;;;;;;;33.33;7.72;;;;;;;;;;5038784;28;20404;-69
2021/11/18 07:58:30;;;;;;;37.60;7.70;;;;;;;;;;5038947;28;20115;-69
2021/11/18 08:00:58;;;;;;;44.80;10.98;;;;;;;;;;5039300;28;20025;-70
2021/11/18 08:03:29;;;;;;;47.95;11.60;;;;;;;;;;5038954;28;20832;-71
2021/11/18 08:06:16;;;;;;;44.95;10.77;;;;;;;;;;5056465;28;20412;-70
2021/11/18 08:08:48;;;;;;;57.55;11.93;;;;;;;;;;5056766;28;20039;-71
2021/11/18 08:11:17;;;;;;;46.15;9.93;;;;;;;;;;5039050;28;20036;-69
2021/11/18 08:13:43;;;;;;;36.45;9.50;;;8.20;99.90;;;;;;5039226;28;20028;-69
2021/11/18 08:16:09;;;;;;;46.97;10.52;;;;;;;;;;5056847;28;20032;-69
2021/11/18 08:18:35;;;;;;;42.13;9.65;;;;;;;;;;5038771;28;20035;-70
2021/11/18 08:21:01;;;;;;;28.05;7.93;;;;;;;;;;5022409;28;20024;-70
2021/11/18 08:23:32;;;;;;;31.92;9.10;;;;;;;;;;5039011;28;20560;-69
2021/11/18 08:25:58;;;;;;;31.80;8.52;;;;;;;;;;5057111;28;20460;-69
2021/11/18 08:28:28;;;;;;;41.25;10.45;;;;;;;;;;5021953;28;20127;-70
2021/11/18 08:30:53;;;;;;;36.45;9.48;;;8.60;99.90;;;;;;5056385;28;20064;-70
2021/11/18 08:33:19;;;;;;;37.53;11.23;;;8.30;99.90;;;;;;5038970;28;20439;-70
2021/11/18 08:35:47;;;;;;;44.25;10.45;;;8.30;99.90;;;;;;5034800;28;20036;-67
2021/11/18 08:38:13;;;;;;;33.47;8.93;;;8.30;99.90;;;;;;5027145;28;20028;-67
2021/11/18 08:40:38;;;;;;;36.38;11.05;;;8.30;99.90;;;;;;5038541;28;20431;-67
2021/11/18 08:43:04;;;;;;;35.20;9.57;;;8.30;99.90;;;;;;5040738;28;20062;-67
2021/11/18 08:45:30;;;;;;;45.47;10.82;;;8.30;99.90;;;;;;5038218;28;20025;-67
2021/11/18 08:47:56;;;;;;;39.20;10.07;;;8.30;99.90;;;;;;5056406;28;20082;-67
2021/11/18 08:50:22;;;;;;;45.67;10.88;;;8.30;99.90;;;;;;5039172;28;20444;-68
2021/11/18 08:52:48;;;;;;;34.40;10.35;;;8.40;99.90;;;;;;5056054;28;20089;-66
2021/11/18 08:55:14;;;;;;;33.50;10.27;;;8.40;99.90;;;;;;5039628;28;20115;-67
2021/11/18 08:57:41;;;;;;;39.97;10.77;;;8.40;99.90;;;;;;5038076;28;20028;-67
2021/11/18 09:00:15;;;;;;;36.83;10.15;;;8.40;99.90;;;;;;5040789;28;20024;-72
2021/11/18 09:03:03;;;;;;;43.65;11.27;;;8.50;99.90;;;;;;5059207;28;20905;-68
2021/11/18 09:05:30;;;;;;;36.65;10.23;;;8.60;99.90;;;;;;5040451;28;20036;-68
2021/11/18 09:07:56;;;;;;;34.53;10.43;;;8.60;99.90;;;;;;5040679;28;20028;-68
2021/11/18 09:10:22;;;;;;;38.83;10.25;;;8.70;99.90;;;;;;5041462;28;20028;-67
2021/11/18 09:12:51;;;;;;;38.25;10.45;;;8.80;99.90;;;;;;5037865;28;20059;-68
2021/11/18 09:15:17;;;;;;;32.88;11.63;;;8.80;99.90;;;;;;5038610;28;20025;-68
2021/11/18 09:17:43;;;;;;;35.33;11.43;;;8.80;99.90;;;;;;5040945;28;20052;-68
2021/11/18 09:20:21;;;;;;;40.53;10.32;;;8.90;99.90;;;;;;5025216;28;20028;-68
2021/11/18 09:22:47;;;;;;;39.42;10.50;;;8.90;99.90;;;;;;5041070;28;20526;-68
2021/11/18 09:25:13;;;;;;;31.52;9.45;;;8.90;99.90;;;;;;5041304;28;20036;-67
2021/11/18 09:27:41;;;;;;;35.40;9.73;;;;;;;;;;5041393;28;20643;-68
2021/11/18 09:30:09;;;;;;;39.38;11.00;;;9.10;99.90;;;;;;5040538;28;20032;-68
2021/11/18 09:32:43;;;;;;;33.77;10.13;;;9.10;99.90;;;;;;5041864;28;20175;-68
2021/11/18 09:35:15;;;;;;;40.40;12.07;;;9.00;99.90;;;;;;5038762;28;20035;-68
2021/11/18 09:37:41;;;;;;;31.77;9.45;;;9.10;99.90;;;;;;5024176;28;20029;-68
2021/11/18 09:40:06;;;;;;;34.83;10.30;;;9.10;99.90;;;;;;5036790;28;20036;-68
2021/11/18 09:42:32;;;;;;;36.47;10.35;;;9.20;99.90;;;;;;5024306;28;20147;-67
2021/11/18 09:45:02;;;;;;;43.72;11.32;;;9.20;99.90;;;;;;5038379;28;20033;-68
2021/11/18 09:47:28;;;;;;;47.00;11.45;;;9.20;99.90;;;;;;5034659;28;20138;-68
2021/11/18 09:49:55;;;;;;;41.88;11.27;;;9.30;99.90;;;;;;5040598;28;20067;-68
2021/11/18 09:52:21;;;;;;;33.33;10.20;;;9.40;99.90;;;;;;5041107;28;20032;-68
2021/11/18 09:54:49;;;;;;;42.10;12.15;;;9.40;99.90;;;;;;5040624;28;20032;-68
2021/11/18 09:57:19;;;;;;;35.60;10.43;;;9.80;99.90;;;;;;5037731;28;20067;-67
2021/11/18 09:59:51;;;;;;;35.97;10.65;;;9.80;99.90;;;;;;5040127;28;20827;-68
2021/11/18 10:02:18;;;;;;;41.50;11.65;;;9.90;99.90;;;;;;5039717;28;20028;-68
2021/11/18 10:04:45;;;;;;;39.28;9.32;;;10.00;99.90;;;;;;5040140;28;20033;-67
2021/11/18 10:07:11;;;;;;;39.95;10.85;;;10.00;99.90;;;;;;5039788;28;20033;-67
2021/11/18 10:09:37;;;;;;;37.17;9.80;;;10.10;99.90;;;;;;5036725;28;20036;-67
2021/11/18 10:12:05;;;;;;;30.63;11.13;;;;;;;;;;5037571;28;20036;-67
2021/11/18 10:14:31;;;;;;;36.17;9.43;;;10.30;99.90;;;;;;5034801;28;20036;-67
2021/11/18 10:17:00;;;;;;;34.45;11.73;;;;;;;;;;5023454;28;20051;-67
2021/11/18 10:19:26;;;;;;;38.92;9.85;;;10.40;99.90;;;;;;5040402;28;20028;-67
2021/11/18 10:21:51;;;;;;;45.15;14.35;;;10.30;99.90;;;;;;5057592;28;20031;-67
2021/11/18 10:24:17;;;;;;;44.80;18.98;;;10.20;99.90;;;;;;5058362;28;20115;-67
2021/11/18 10:26:42;;;;;;;37.85;9.55;;;10.00;99.90;;;;;;5036441;28;20043;-67
2021/11/18 10:29:08;;;;;;;39.38;11.07;;;9.90;99.90;;;;;;5038626;28;20874;-67
2021/11/18 10:31:33;;;;;;;34.22;10.85;;;9.90;99.90;;;;;;5058141;28;20035;-67
2021/11/18 10:33:59;;;;;;;36.65;9.25;;;9.80;99.90;;;;;;5057985;28;20157;-67
2021/11/18 10:36:24;;;;;;;39.88;13.13;;;9.90;99.90;;;;;;5058294;28;20139;-67
2021/11/18 10:38:50;;;;;;;42.10;14.07;;;9.90;99.90;;;;;;5059137;28;20594;-68
2021/11/18 10:41:15;;;;;;;31.67;9.57;;;10.00;99.90;;;;;;5058620;28;20399;-67
2021/11/18 10:43:41;;;;;;;31.38;12.45;;;10.20;99.90;;;;;;5042099;28;20062;-68
2021/11/18 10:46:06;;;;;;;33.10;10.80;;;10.10;99.90;;;;;;5059449;28;20036;-68
2021/11/18 10:48:33;;;;;;;41.55;11.85;;;10.00;99.90;;;;;;5058658;28;20044;-67
2021/11/18 10:51:00;;;;;;;36.13;11.63;;;10.00;99.90;;;;;;5059189;28;20075;-67
2021/11/18 10:53:26;;;;;;;43.03;12.98;;;9.90;99.90;;;;;;5059309;28;20040;-67
2021/11/18 10:55:52;;;;;;;40.17;11.30;;;9.90;99.90;;;;;;5058663;28;20075;-68
2021/11/18 10:58:18;;;;;;;37.88;11.60;;;10.10;99.90;;;;;;5056651;28;20475;-68
2021/11/18 11:00:44;;;;;;;41.92;13.13;;;10.10;99.90;;;;;;5054138;28;20063;-67
2021/11/18 11:03:09;;;;;;;42.03;13.05;;;10.10;99.90;;;;;;5057502;28;20602;-67
2021/11/18 11:05:36;;;;;;;36.67;11.23;;;10.10;99.90;;;;;;5057599;28;20139;-67
2021/11/18 11:08:03;;;;;;;32.03;11.27;;;10.10;99.90;;;;;;5036972;28;20147;-67
2021/11/18 11:10:28;;;;;;;34.10;10.70;;;10.20;99.90;;;;;;5057397;28;20690;-67
2021/11/18 11:12:54;;;;;;;29.35;9.10;;;10.20;99.90;;;;;;5056748;28;20474;-67
2021/11/18 11:15:19;;;;;;;37.25;10.60;;;10.40;99.90;;;;;;5057126;28;20141;-67
2021/11/18 11:17:48;;;;;;;30.45;10.35;;;10.30;99.90;;;;;;5040130;28;20047;-68
2021/11/18 11:20:13;;;;;;;34.17;9.52;;;10.40;99.90;;;;;;5057023;28;20891;-67
2021/11/18 11:22:40;;;;;;;36.08;9.95;;;10.40;99.90;;;;;;5057646;28;20025;-67
2021/11/18 11:25:05;;;;;;;33.47;9.02;;;10.40;99.90;;;;;;5040261;28;20055;-67
2021/11/18 11:27:31;;;;;;;46.85;13.65;;;10.40;99.90;;;;;;5057259;28;20028;-68
2021/11/18 11:29:57;;;;;;;31.42;12.35;;;10.40;99.90;;;;;;5058593;28;20040;-74
2021/11/18 11:32:23;;;;;;;47.85;12.73;;;10.30;99.90;;;;;;5057574;28;20048;-68
2021/11/18 11:34:49;;;;;;;38.83;10.43;;;10.30;99.90;;;;;;5057394;28;20035;-68
2021/11/18 11:37:15;;;;;;;37.83;10.20;;;10.40;99.90;;;;;;5057798;28;20040;-68
2021/11/18 11:39:40;;;;;;;36.60;10.95;;;10.30;99.90;;;;;;5057872;28;20036;-68
2021/11/18 11:42:08;;;;;;;33.90;9.63;;;10.30;99.90;;;;;;5056759;28;20024;-68
2021/11/18 11:44:33;;;;;;;33.28;8.93;;;10.30;99.90;;;;;;5057547;28;20064;-69
2021/11/18 11:46:59;;;;;;;28.92;9.82;;;10.40;99.90;;;;;;5057179;28;20123;-69
2021/11/18 11:49:24;;;;;;;37.78;9.57;;;10.40;99.90;;;;;;5056699;28;20067;-69
2021/11/18 11:51:50;;;;;;;38.28;9.93;;;10.40;99.90;;;;;;5057552;28;20059;-69
2021/11/18 11:54:15;;;;;;;40.78;11.57;;;10.40;99.90;;;;;;5056849;28;20025;-69
2021/11/18 11:56:41;;;;;;;28.88;10.25;;;10.40;99.90;;;;;;5055798;28;20568;-70
2021/11/18 11:59:06;;;;;;;32.42;9.13;;;10.40;99.90;;;;;;5056695;28;20748;-69
2021/11/18 12:01:32;;;;;;;24.42;9.02;;;10.40;99.90;;;;;;5056785;28;20060;-68
2021/11/18 12:03:57;;;;;;;35.45;8.73;;;10.50;99.90;;;;;;5057197;28;20493;-69
2021/11/18 12:06:23;;;;;;;36.67;8.50;;;10.50;99.90;;;;;;5057903;28;20032;-68
2021/11/18 12:08:48;;;;;;;25.77;7.65;;;10.60;99.90;;;;;;5056734;28;20838;-70
2021/11/18 12:11:14;;;;;;;28.27;10.60;;;10.70;99.90;;;;;;5022249;28;20041;-69
2021/11/18 12:13:39;;;;;;;27.55;7.97;;;10.70;99.90;;;;;;5038985;28;20484;-69
2021/11/18 12:16:05;;;;;;;29.42;8.68;;;10.80;99.90;;;;;;5057173;28;20076;-69
2021/11/18 12:18:30;;;;;;;33.90;7.78;;;10.80;99.90;;;;;;5056918;28;20040;-69
2021/11/18 12:20:56;;;;;;;35.13;8.85;;;10.80;99.90;;;;;;5057395;28;20111;-69
2021/11/18 12:23:21;;;;;;;34.92;7.95;;;10.80;99.90;;;;;;5057708;28;20036;-69
2021/11/18 12:25:48;;;;;;;40.83;8.30;;;10.80;99.90;;;;;;5057479;28;20164;-70
2021/11/18 12:28:17;;;;;;;35.17;8.98;;;10.70;99.90;;;;;;5056179;28;20074;-69
2021/11/18 12:30:43;;;;;;;31.55;7.47;;;10.60;99.90;;;;;;5057489;28;20043;-69
2021/11/18 12:33:08;;;;;;;30.52;8.05;;;10.60;99.90;;;;;;5056989;28;20400;-69
2021/11/18 12:35:34;;;;;;;33.47;8.48;;;10.60;99.90;;;;;;5060651;28;20039;-69
2021/11/18 12:37:59;;;;;;;27.95;8.07;;;10.50;99.90;;;;;;5060740;28;20032;-69
2021/11/18 12:40:25;;;;;;;33.03;7.63;;;10.50;99.90;;;;;;5059979;28;20028;-69
2021/11/18 12:42:52;;;;;;;24.58;7.20;;;10.60;99.90;;;;;;5060775;28;20103;-75
2021/11/18 12:45:17;;;;;;;31.55;10.60;;;10.60;99.90;;;;;;5060757;28;20071;-69
2021/11/18 12:47:43;;;;;;;27.33;8.45;;;10.70;99.90;;;;;;5060036;28;20139;-70
2021/11/18 12:50:09;;;;;;;32.60;8.57;;;10.70;99.90;;;;;;5043117;28;20040;-69
2021/11/18 12:52:34;;;;;;;28.95;7.95;;;10.70;99.90;;;;;;5060685;28;20036;-70
2021/11/18 12:55:00;;;;;;;30.15;8.52;;;10.70;99.90;;;;;;5059974;28;20510;-71
2021/11/18 12:57:25;;;;;;;31.45;8.20;;;11.00;99.90;;;;;;5060309;28;20035;-71
2021/11/18 12:59:51;;;;;;;33.47;8.10;;;10.60;99.90;;;;;;5041674;28;20021;-69
2021/11/18 13:02:17;;;;;;;23.70;6.93;;;;;;;;;;5060270;28;20017;-70
2021/11/18 13:04:42;;;;;;;28.67;8.70;;;10.50;99.90;;;;;;5060405;28;20035;-69
2021/11/18 13:07:08;;;;;;;33.67;7.85;;;;;;;;;;5042234;28;20036;-69
2021/11/18 13:09:34;;;;;;;25.73;6.80;;;10.50;99.90;;;;;;5059828;28;20127;-68
2021/11/18 13:12:01;;;;;;;40.80;9.73;;;10.80;99.90;;;;;;5042108;28;20097;-69